createdAt,value
2019-04-07T00:00:48.625Z,12.22
2019-04-07T00:03:18.491Z,12.21
2019-04-07T00:05:48.188Z,12.22
2019-04-07T00:08:17.833Z,12.21
2019-04-07T00:10:47.044Z,12.22
2019-04-07T00:13:16.231Z,12.15
2019-04-07T00:15:45.509Z,12.11
2019-04-07T00:18:14.715Z,12.09
2019-04-07T00:20:43.913Z,12.08
2019-04-07T00:23:13.176Z,12.05
2019-04-07T00:25:42.971Z,12.08
2019-04-07T00:28:12.190Z,12.06
2019-04-07T00:30:41.355Z,12.10
2019-04-07T00:33:11.277Z,12.10
2019-04-07T00:35:40.572Z,12.14
2019-04-07T00:38:09.791Z,12.14
2019-04-07T00:40:39.180Z,12.17
2019-04-07T00:43:08.788Z,12.21
2019-04-07T00:45:38.023Z,12.24
2019-04-07T00:48:07.732Z,12.29
2019-04-07T00:50:39.343Z,12.35
2019-04-07T00:53:08.851Z,12.35
2019-04-07T00:55:38.585Z,12.40
2019-04-07T00:58:08.293Z,12.38
2019-04-07T01:00:39.991Z,12.42
2019-04-07T01:03:09.505Z,12.46
2019-04-07T01:05:41.423Z,12.54
2019-04-07T01:08:09.715Z,12.54
2019-04-07T01:10:39.071Z,12.45
2019-04-07T01:13:08.569Z,12.45
2019-04-07T01:15:38.382Z,12.49
2019-04-07T01:18:07.832Z,12.46
2019-04-07T01:20:36.976Z,12.43
2019-04-07T01:23:06.185Z,12.48
2019-04-07T01:25:35.753Z,12.48
2019-04-07T01:28:05.474Z,12.49
2019-04-07T01:30:34.955Z,12.42
2019-04-07T01:33:05.336Z,12.42
2019-04-07T01:35:45.059Z,12.38
2019-04-07T01:38:05.980Z,12.38
2019-04-07T01:40:35.406Z,12.38
2019-04-07T01:43:06.482Z,12.34
2019-04-07T01:45:46.561Z,12.34
2019-04-07T01:48:17.303Z,12.27
2019-04-07T01:50:51.797Z,12.28
2019-04-07T01:53:22.879Z,12.24
2019-04-07T01:56:06.469Z,12.24
2019-04-07T01:58:52.452Z,12.26
2019-04-07T02:01:32.696Z,12.25
2019-04-07T02:04:19.548Z,12.22
2019-04-07T02:07:07.319Z,12.24
2019-04-07T02:09:54.561Z,12.17
2019-04-07T02:12:42.328Z,12.22
2019-04-07T02:15:13.896Z,12.20
2019-04-07T02:17:45.504Z,12.19
2019-04-07T02:20:56.779Z,12.16
2019-04-07T02:23:37.163Z,12.14
2019-04-07T02:26:08.209Z,12.11
2019-04-07T02:28:38.989Z,12.14
2019-04-07T02:31:26.144Z,12.09
2019-04-07T02:34:03.194Z,12.12
2019-04-07T02:36:37.580Z,12.17
2019-04-07T02:39:21.505Z,12.11
2019-04-07T02:42:08.835Z,12.10
2019-04-07T02:44:39.702Z,12.09
2019-04-07T02:47:10.720Z,12.10
2019-04-07T02:49:44.396Z,12.09
2019-04-07T02:52:28.096Z,12.08
2019-04-07T02:55:02.551Z,12.08
2019-04-07T02:57:47.818Z,12.08
2019-04-07T03:00:34.295Z,12.09
2019-04-07T03:03:05.458Z,12.00
2019-04-07T03:05:36.437Z,12.00
2019-04-07T03:08:10.280Z,11.93
2019-04-07T03:10:47.367Z,11.93
2019-04-07T03:13:18.262Z,11.90
2019-04-07T03:15:49.100Z,11.83
2019-04-07T03:18:24.235Z,11.83
2019-04-07T03:21:01.192Z,11.80
2019-04-07T03:23:48.641Z,11.76
2019-04-07T03:26:36.429Z,11.77
2019-04-07T03:29:07.310Z,11.81
2019-04-07T03:31:38.853Z,11.75
2019-04-07T03:34:24.100Z,11.74
2019-04-07T03:37:25.994Z,11.76
2019-04-07T03:39:33.346Z,11.75
2019-04-07T03:42:10.714Z,11.75
2019-04-07T03:44:41.925Z,11.74
2019-04-07T03:47:16.470Z,11.72
2019-04-07T03:49:47.764Z,11.74
2019-04-07T03:52:36.864Z,11.75
2019-04-07T03:55:09.288Z,11.81
2019-04-07T03:57:40.903Z,11.76
2019-04-07T04:00:43.683Z,11.84
2019-04-07T04:03:14.787Z,11.85
2019-04-07T04:05:52.178Z,11.77
2019-04-07T04:08:24.638Z,11.79
2019-04-07T04:11:01.730Z,11.81
2019-04-07T04:13:45.776Z,11.80
2019-04-07T04:16:14.986Z,11.75
2019-04-07T04:18:44.729Z,11.72
2019-04-07T04:21:13.937Z,11.75
2019-04-07T04:23:44.549Z,11.72
2019-04-07T04:26:13.892Z,11.68
2019-04-07T04:28:44.200Z,11.69
2019-04-07T04:31:14.080Z,11.68
2019-04-07T04:33:44.308Z,11.69
2019-04-07T04:36:13.645Z,11.69
2019-04-07T04:38:43.057Z,11.68
2019-04-07T04:41:13.211Z,11.66
2019-04-07T04:43:42.420Z,11.70
2019-04-07T04:46:12.732Z,11.67
2019-04-07T04:48:43.003Z,11.71
2019-04-07T04:51:13.060Z,11.74
2019-04-07T04:53:42.465Z,11.81
2019-04-07T04:56:11.631Z,11.84
2019-04-07T04:58:40.830Z,11.81
2019-04-07T05:01:10.654Z,11.81
2019-04-07T05:03:40.546Z,11.88
2019-04-07T05:06:10.210Z,11.85
2019-04-07T05:08:39.449Z,11.82
2019-04-07T05:11:09.141Z,11.84
2019-04-07T05:13:38.537Z,11.87
2019-04-07T05:16:08.285Z,11.87
2019-04-07T05:18:38.200Z,11.90
2019-04-07T05:21:07.516Z,11.92
2019-04-07T05:23:36.709Z,11.93
2019-04-07T05:26:05.896Z,11.95
2019-04-07T05:28:37.047Z,12.03
2019-04-07T05:31:07.229Z,12.05
2019-04-07T05:33:36.773Z,12.01
2019-04-07T05:36:06.004Z,12.07
2019-04-07T05:38:35.699Z,12.14
2019-04-07T05:41:05.429Z,12.14
2019-04-07T05:43:35.456Z,12.14
2019-04-07T05:46:07.091Z,12.12
2019-04-07T05:48:35.638Z,12.15
2019-04-07T05:51:05.551Z,12.13
2019-04-07T05:53:34.939Z,12.15
2019-04-07T05:56:04.362Z,12.08
2019-04-07T05:58:37.459Z,12.12
2019-04-07T06:01:05.201Z,12.12
2019-04-07T06:03:38.620Z,12.21
2019-04-07T06:06:05.441Z,12.20
2019-04-07T06:08:38.696Z,12.18
2019-04-07T06:11:06.201Z,12.24
2019-04-07T06:13:37.999Z,12.28
2019-04-07T06:16:07.989Z,12.35
2019-04-07T06:18:37.868Z,12.39
2019-04-07T06:21:07.745Z,12.34
2019-04-07T06:23:37.555Z,12.47
2019-04-07T06:26:11.183Z,12.49
2019-04-07T06:28:38.137Z,12.66
2019-04-07T06:31:08.243Z,12.66
2019-04-07T06:33:38.628Z,12.71
2019-04-07T06:36:08.362Z,12.73
2019-04-07T06:38:41.547Z,12.72
2019-04-07T06:41:09.441Z,12.73
2019-04-07T06:43:40.144Z,12.73
2019-04-07T06:46:17.594Z,12.69
2019-04-07T06:49:04.545Z,12.76
2019-04-07T06:51:35.629Z,12.83
2019-04-07T06:54:06.901Z,12.84
2019-04-07T06:56:41.096Z,12.88
2019-04-07T06:59:24.052Z,13.05
2019-04-07T07:02:10.037Z,13.15
2019-04-07T07:04:43.558Z,13.19
2019-04-07T07:07:19.941Z,13.60
2019-04-07T07:09:59.842Z,13.87
2019-04-07T07:12:34.972Z,14.56
2019-04-07T07:15:08.019Z,14.80
2019-04-07T07:17:38.876Z,15.45
2019-04-07T07:20:28.695Z,16.08
2019-04-07T07:23:01.319Z,16.18
2019-04-07T07:25:32.150Z,16.44
2019-04-07T07:28:01.685Z,16.80
2019-04-07T07:30:31.550Z,16.48
2019-04-07T07:33:00.808Z,17.00
2019-04-07T07:35:30.025Z,17.24
2019-04-07T07:37:59.766Z,17.59
2019-04-07T07:40:29.895Z,18.66
2019-04-07T07:42:59.576Z,19.38
2019-04-07T07:45:28.876Z,19.38
2019-04-07T07:47:58.104Z,19.62
2019-04-07T07:50:28.377Z,19.34
2019-04-07T07:52:58.201Z,20.28
2019-04-07T07:55:28.528Z,20.95
2019-04-07T07:57:59.342Z,21.25
2019-04-07T08:00:28.642Z,21.11
2019-04-07T08:02:58.228Z,21.93
2019-04-07T08:05:32.279Z,20.90
2019-04-07T08:07:59.352Z,21.54
2019-04-07T08:10:29.053Z,21.97
2019-04-07T08:12:58.574Z,21.53
2019-04-07T08:15:31.963Z,21.60
2019-04-07T08:18:03.175Z,20.49
2019-04-07T08:20:29.793Z,20.19
2019-04-07T08:22:59.329Z,21.25
2019-04-07T08:25:29.172Z,22.45
2019-04-07T08:28:02.163Z,21.54
2019-04-07T08:30:29.321Z,22.50
2019-04-07T08:33:00.278Z,21.67
2019-04-07T08:35:30.883Z,22.11
2019-04-07T08:38:00.926Z,19.89
2019-04-07T08:40:30.907Z,19.25
2019-04-07T08:43:00.467Z,18.42
2019-04-07T08:45:32.729Z,17.56
2019-04-07T08:48:01.969Z,17.25
2019-04-07T08:50:31.175Z,17.19
2019-04-07T08:53:00.360Z,17.00
2019-04-07T08:55:29.915Z,17.08
2019-04-07T08:58:02.218Z,17.20
2019-04-07T09:00:33.607Z,17.08
2019-04-07T09:03:08.282Z,16.85
2019-04-07T09:05:35.448Z,16.76
2019-04-07T09:08:06.023Z,16.59
2019-04-07T09:10:41.016Z,16.34
2019-04-07T09:13:10.455Z,16.33
2019-04-07T09:15:53.404Z,16.43
2019-04-07T09:18:24.457Z,16.58
2019-04-07T09:20:56.053Z,16.38
2019-04-07T09:23:42.574Z,16.61
2019-04-07T09:26:17.180Z,16.40
2019-04-07T09:29:05.114Z,16.53
2019-04-07T09:31:44.914Z,16.68
2019-04-07T09:34:34.540Z,16.84
2019-04-07T09:37:07.867Z,16.72
2019-04-07T09:40:01.109Z,16.69
2019-04-07T09:42:46.653Z,16.74
2019-04-07T09:45:21.300Z,16.58
2019-04-07T09:48:04.082Z,16.62
2019-04-07T09:50:38.586Z,16.83
2019-04-07T09:53:25.789Z,16.88
2019-04-07T09:55:59.744Z,16.88
2019-04-07T09:58:47.036Z,17.12
2019-04-07T10:01:27.820Z,17.15
2019-04-07T10:03:59.349Z,17.11
2019-04-07T10:06:42.224Z,16.93
2019-04-07T10:09:17.169Z,17.07
2019-04-07T10:11:49.380Z,17.22
2019-04-07T10:14:23.100Z,17.30
2019-04-07T10:16:54.586Z,17.15
2019-04-07T10:19:28.245Z,17.19
2019-04-07T10:22:02.629Z,17.23
2019-04-07T10:24:34.644Z,17.25
2019-04-07T10:27:22.397Z,17.30
2019-04-07T10:29:53.328Z,17.36
2019-04-07T10:32:32.785Z,17.33
2019-04-07T10:35:12.629Z,17.50
2019-04-07T10:37:55.386Z,17.61
2019-04-07T10:40:35.174Z,17.58
2019-04-07T10:43:22.832Z,17.66
2019-04-07T10:46:00.295Z,17.72
2019-04-07T10:48:34.250Z,17.65
2019-04-07T10:51:07.961Z,17.69
2019-04-07T10:53:54.871Z,17.77
2019-04-07T10:56:40.575Z,17.93
2019-04-07T10:59:17.486Z,17.94
2019-04-07T11:01:49.094Z,18.00
2019-04-07T11:04:35.151Z,18.09
2019-04-07T11:07:11.764Z,18.08
2019-04-07T11:09:52.080Z,18.07
2019-04-07T11:12:25.085Z,17.99
2019-04-07T11:15:12.559Z,18.06
2019-04-07T11:17:43.661Z,18.24
2019-04-07T11:20:17.096Z,18.27
2019-04-07T11:22:50.590Z,18.20
2019-04-07T11:25:38.466Z,18.25
2019-04-07T11:28:12.264Z,18.28
2019-04-07T11:30:52.113Z,18.27
2019-04-07T11:33:23.161Z,18.32
2019-04-07T11:35:54.009Z,18.34
2019-04-07T11:38:25.761Z,18.49
2019-04-07T11:41:12.816Z,18.54
2019-04-07T11:43:44.289Z,18.56
2019-04-07T11:46:24.492Z,18.74
2019-04-07T11:49:02.436Z,18.75
2019-04-07T11:51:42.530Z,18.83
2019-04-07T11:54:28.458Z,19.04
2019-04-07T11:56:59.301Z,19.12
2019-04-07T11:59:39.353Z,19.19
2019-04-07T12:02:10.686Z,19.18
2019-04-07T12:04:44.382Z,19.24
2019-04-07T12:07:19.245Z,19.31
2019-04-07T12:09:54.239Z,19.36
2019-04-07T12:12:25.111Z,19.42
2019-04-07T12:15:05.251Z,19.50
2019-04-07T12:20:46.117Z,19.41
2019-04-07T12:23:33.724Z,19.49
2019-04-07T12:26:20.390Z,19.50
2019-04-07T12:29:07.972Z,19.45
2019-04-07T12:31:59.800Z,19.39
2019-04-07T12:35:07.428Z,19.55
2019-04-07T12:37:53.263Z,19.48
2019-04-07T12:40:30.669Z,19.58
2019-04-07T12:43:29.128Z,19.59
2019-04-07T12:46:16.721Z,19.74
2019-04-07T12:48:48.003Z,19.71
2019-04-07T12:51:35.231Z,19.62
2019-04-07T12:54:23.302Z,19.66
2019-04-07T12:56:54.729Z,19.82
2019-04-07T12:59:39.214Z,19.74
2019-04-07T13:02:09.993Z,19.70
2019-04-07T13:04:44.598Z,19.74
2019-04-07T13:07:20.414Z,20.03
2019-04-07T13:09:53.833Z,19.81
2019-04-07T13:12:30.520Z,19.77
2019-04-07T13:15:16.559Z,19.84
2019-04-07T13:17:50.640Z,19.98
2019-04-07T13:20:40.774Z,20.15
2019-04-07T13:23:14.494Z,20.17
2019-04-07T13:25:55.016Z,19.97
2019-04-07T13:28:40.152Z,19.88
2019-04-07T13:31:11.311Z,19.98
2019-04-07T13:33:42.102Z,20.05
2019-04-07T13:36:16.013Z,19.87
2019-04-07T13:38:50.157Z,19.88
2019-04-07T13:41:38.646Z,19.99
2019-04-07T13:44:07.104Z,19.89
2019-04-07T13:46:37.532Z,20.09
2019-04-07T13:49:17.162Z,20.05
2019-04-07T13:51:51.363Z,20.10
2019-04-07T13:54:25.368Z,20.07
2019-04-07T13:56:59.037Z,20.10
2019-04-07T13:59:44.875Z,20.12
2019-04-07T14:02:26.387Z,20.07
2019-04-07T14:05:07.574Z,20.20
2019-04-07T14:07:37.239Z,20.20
2019-04-07T14:10:25.606Z,20.15
2019-04-07T14:12:56.510Z,20.25
2019-04-07T14:15:28.061Z,20.15
2019-04-07T14:18:15.560Z,20.12
2019-04-07T14:21:03.066Z,20.23
2019-04-07T14:23:40.006Z,20.25
2019-04-07T14:26:23.318Z,20.27
2019-04-07T14:29:03.131Z,20.28
2019-04-07T14:31:43.273Z,20.29
2019-04-07T14:34:29.351Z,20.33
2019-04-07T14:37:18.657Z,20.23
2019-04-07T14:39:55.397Z,20.25
2019-04-07T14:42:26.374Z,20.34
2019-04-07T14:45:06.686Z,20.34
2019-04-07T14:47:40.045Z,20.38
2019-04-07T14:50:12.094Z,20.38
2019-04-07T14:52:47.109Z,20.47
2019-04-07T14:55:24.657Z,20.52
2019-04-07T14:58:01.732Z,20.41
2019-04-07T15:00:32.661Z,20.44
2019-04-07T15:03:02.099Z,20.44
2019-04-07T15:05:33.109Z,20.47
2019-04-07T15:08:04.410Z,20.43
2019-04-07T15:10:36.170Z,20.45
2019-04-07T15:13:07.066Z,20.46
2019-04-07T15:15:36.867Z,20.54
2019-04-07T15:18:06.031Z,20.51
2019-04-07T15:20:35.223Z,20.47
2019-04-07T15:23:05.453Z,20.43
2019-04-07T15:25:35.492Z,20.50
2019-04-07T15:28:04.820Z,20.46
2019-04-07T15:30:34.079Z,20.51
2019-04-07T15:33:04.171Z,20.54
2019-04-07T15:35:35.245Z,20.57
2019-04-07T15:38:05.325Z,20.64
2019-04-07T15:40:36.247Z,20.46
2019-04-07T15:43:08.672Z,20.44
2019-04-07T15:45:36.858Z,20.36
2019-04-07T15:48:06.059Z,20.32
2019-04-07T15:50:35.472Z,20.33
2019-04-07T15:53:04.639Z,20.32
2019-04-07T15:55:45.820Z,20.25
2019-04-07T15:58:04.997Z,20.29
2019-04-07T16:00:35.257Z,20.27
2019-04-07T16:03:05.414Z,20.31
2019-04-07T16:05:40.371Z,20.28
2019-04-07T16:08:06.309Z,20.28
2019-04-07T16:10:35.976Z,20.26
2019-04-07T16:13:05.396Z,20.33
2019-04-07T16:15:35.033Z,20.33
2019-04-07T16:18:14.635Z,20.34
2019-04-07T16:20:51.316Z,20.33
2019-04-07T16:23:30.575Z,20.33
2019-04-07T16:26:10.697Z,20.33
2019-04-07T16:29:00.108Z,20.31
2019-04-07T16:31:25.663Z,20.36
2019-04-07T16:34:05.829Z,20.33
2019-04-07T16:36:35.561Z,20.31
2019-04-07T16:39:09.334Z,20.38
2019-04-07T16:41:39.256Z,20.36
2019-04-07T16:44:10.575Z,20.39
2019-04-07T16:46:39.599Z,20.37
2019-04-07T16:49:11.519Z,20.30
2019-04-07T16:51:40.451Z,20.33
2019-04-07T16:54:10.424Z,20.39
2019-04-07T16:56:41.405Z,20.38
2019-04-07T16:59:10.714Z,20.39
2019-04-07T17:01:39.998Z,20.31
2019-04-07T17:04:09.454Z,20.26
2019-04-07T17:06:39.073Z,20.28
2019-04-07T17:09:17.778Z,20.20
2019-04-07T17:11:47.629Z,20.25
2019-04-07T17:14:16.970Z,20.19
2019-04-07T17:16:46.182Z,20.16
2019-04-07T17:19:16.187Z,20.15
2019-04-07T17:21:45.537Z,20.12
2019-04-07T17:24:14.746Z,20.07
2019-04-07T17:26:43.970Z,20.05
2019-04-07T17:29:17.075Z,19.99
2019-04-07T17:31:44.440Z,19.96
2019-04-07T17:34:14.483Z,19.92
2019-04-07T17:36:48.478Z,19.89
2019-04-07T17:39:17.076Z,19.88
2019-04-07T17:41:49.909Z,19.87
2019-04-07T17:44:22.072Z,19.86
2019-04-07T17:46:58.487Z,19.78
2019-04-07T17:49:43.072Z,19.73
2019-04-07T17:52:30.044Z,19.67
2019-04-07T17:55:17.572Z,19.64
2019-04-07T17:57:48.441Z,19.60
2019-04-07T18:00:36.219Z,19.54
2019-04-07T18:03:19.514Z,19.48
2019-04-07T18:06:02.093Z,19.45
2019-04-07T18:08:49.590Z,19.44
2019-04-07T18:11:20.439Z,19.41
2019-04-07T18:14:07.792Z,19.35
2019-04-07T18:16:44.739Z,19.32
2019-04-07T18:19:18.663Z,19.26
2019-04-07T18:22:02.270Z,19.24
2019-04-07T18:24:45.059Z,19.22
2019-04-07T18:27:18.351Z,19.20
2019-04-07T18:29:49.170Z,19.15
2019-04-07T18:32:31.895Z,19.12
2019-04-07T18:35:19.489Z,19.11
2019-04-07T18:38:08.980Z,19.07
2019-04-07T18:40:58.354Z,19.05
2019-04-07T18:43:27.802Z,19.02
2019-04-07T18:45:58.996Z,18.97
2019-04-07T18:48:36.047Z,18.99
2019-04-07T18:51:16.021Z,18.97
2019-04-07T18:53:47.506Z,18.92
2019-04-07T18:56:22.598Z,18.87
2019-04-07T18:58:56.404Z,18.80
2019-04-07T19:01:45.648Z,18.79
2019-04-07T19:04:17.318Z,18.73
2019-04-07T19:06:53.863Z,18.67
2019-04-07T19:09:29.853Z,18.66
2019-04-07T19:12:20.092Z,18.64
2019-04-07T19:15:06.959Z,18.60
2019-04-07T19:17:43.141Z,18.55
2019-04-07T19:20:30.599Z,18.47
2019-04-07T19:23:04.419Z,18.44
2019-04-07T19:25:44.436Z,18.38
2019-04-07T19:28:34.077Z,18.35
2019-04-07T19:31:08.666Z,18.32
2019-04-07T19:33:57.894Z,18.27
2019-04-07T19:36:28.054Z,18.26
2019-04-07T19:39:21.395Z,18.22
2019-04-07T19:42:04.604Z,18.17
2019-04-07T19:44:37.105Z,18.18
2019-04-07T19:47:14.173Z,18.15
2019-04-07T19:49:50.182Z,18.15
2019-04-07T19:52:38.374Z,18.12
2019-04-07T19:55:09.999Z,18.04
2019-04-07T19:57:58.013Z,18.00
2019-04-07T20:00:35.677Z,18.00
2019-04-07T20:03:24.180Z,17.94
2019-04-07T20:05:56.121Z,17.90
2019-04-07T20:08:34.910Z,17.80
2019-04-07T20:11:11.796Z,17.72
2019-04-07T20:13:46.592Z,17.73
2019-04-07T20:16:33.701Z,17.69
2019-04-07T20:19:13.773Z,17.68
2019-04-07T20:21:54.785Z,17.69
2019-04-07T20:24:23.875Z,17.67
2019-04-07T20:27:03.720Z,17.65
2019-04-07T20:29:41.374Z,17.66
2019-04-07T20:32:10.968Z,17.70
2019-04-07T20:34:48.367Z,17.66
2019-04-07T20:37:23.492Z,17.60
2019-04-07T20:40:06.787Z,17.61
2019-04-07T20:42:40.450Z,17.62
2019-04-07T20:45:24.551Z,17.59
2019-04-07T20:48:00.166Z,17.49
2019-04-07T20:50:49.949Z,17.45
2019-04-07T20:53:23.974Z,17.37
2019-04-07T20:56:12.935Z,17.43
2019-04-07T20:58:54.917Z,17.37
2019-04-07T21:01:22.193Z,17.37
2019-04-07T21:03:52.991Z,17.39
2019-04-07T21:06:42.180Z,17.40
2019-04-07T21:09:33.370Z,17.32
2019-04-07T21:12:21.184Z,17.34
2019-04-07T21:14:52.042Z,17.31
2019-04-07T21:17:30.394Z,17.28
2019-04-07T21:20:18.123Z,17.23
2019-04-07T21:23:01.115Z,17.20
2019-04-07T21:25:31.953Z,17.19
2019-04-07T21:28:12.653Z,17.18
2019-04-07T21:30:46.315Z,17.14
2019-04-07T21:33:23.797Z,17.14
2019-04-07T21:35:58.963Z,17.14
2019-04-07T21:38:45.417Z,17.15
2019-04-07T21:41:32.774Z,17.15
2019-04-07T21:44:15.555Z,17.18
2019-04-07T21:47:11.995Z,17.15
2019-04-07T21:49:53.737Z,17.14
2019-04-07T21:53:04.463Z,17.14
2019-04-07T21:55:43.354Z,17.15
2019-04-07T21:58:30.425Z,17.07
2019-04-07T22:01:08.273Z,17.10
2019-04-07T22:03:46.180Z,17.13
2019-04-07T22:06:17.740Z,17.07
2019-04-07T22:08:56.318Z,17.03
2019-04-07T22:11:28.979Z,17.02
2019-04-07T22:13:57.467Z,16.98
2019-04-07T22:16:30.564Z,16.82
2019-04-07T22:19:20.195Z,16.79
2019-04-07T22:21:53.294Z,16.63
2019-04-07T22:24:20.731Z,16.53
2019-04-07T22:26:50.559Z,16.51
2019-04-07T22:29:20.576Z,16.43
2019-04-07T22:31:51.569Z,16.43
2019-04-07T22:34:20.920Z,16.33
2019-04-07T22:36:50.162Z,16.35
2019-04-07T22:39:19.346Z,16.29
2019-04-07T22:41:48.624Z,16.26
2019-04-07T22:44:19.868Z,16.25
2019-04-07T22:46:51.933Z,16.30
2019-04-07T22:49:19.876Z,16.29
2019-04-07T22:51:49.809Z,16.12
2019-04-07T22:54:19.872Z,16.20
2019-04-07T22:56:49.093Z,16.24
2019-04-07T22:59:18.370Z,16.15
2019-04-07T23:01:47.623Z,16.16
2019-04-07T23:04:16.821Z,16.13
2019-04-07T23:06:46.021Z,16.06
2019-04-07T23:09:15.548Z,16.14
2019-04-07T23:11:44.824Z,16.08
2019-04-07T23:14:13.998Z,15.97
2019-04-07T23:16:43.194Z,16.06
2019-04-07T23:19:12.469Z,16.02
2019-04-07T23:21:41.854Z,15.89
2019-04-07T23:24:11.218Z,15.88
2019-04-07T23:26:40.532Z,15.86
2019-04-07T23:29:10.054Z,15.82
2019-04-07T23:31:40.439Z,15.91
2019-04-07T23:34:10.563Z,15.81
2019-04-07T23:36:39.820Z,15.76
2019-04-07T23:39:09.864Z,15.73
2019-04-07T23:41:39.711Z,15.60
2019-04-07T23:44:09.423Z,15.55
2019-04-07T23:46:39.372Z,15.53
2019-04-07T23:49:08.524Z,15.58
2019-04-07T23:51:37.733Z,15.55
2019-04-07T23:54:09.138Z,15.45
2019-04-07T23:56:40.199Z,15.42
2019-04-07T23:59:10.389Z,15.41
